createdAt,value
2022-09-06T00:03:17.631Z,101112.91
2022-09-06T00:08:22.504Z,101127.34
2022-09-06T00:13:25.947Z,101121.78
2022-09-06T00:18:29.379Z,101124.94
2022-09-06T00:23:34.179Z,101133.09
2022-09-06T00:28:37.623Z,101132.31
2022-09-06T00:33:41.212Z,101132.16
2022-09-06T00:38:46.379Z,101115.44
2022-09-06T00:43:50.095Z,101121.44
2022-09-06T00:48:55.867Z,101115.09
2022-09-06T00:54:03.730Z,101119.94
2022-09-06T00:59:09.547Z,101129.59
2022-09-06T01:04:14.902Z,101137.63
2022-09-06T01:09:31.842Z,101129.66
2022-09-06T01:14:45.203Z,101125.78
2022-09-06T01:20:15.171Z,101119.06
2022-09-06T01:25:35.943Z,101112.06
2022-09-06T01:30:45.622Z,101103.34
2022-09-06T01:35:52.246Z,101094.38
2022-09-06T01:40:55.999Z,101094.97
2022-09-06T01:46:07.163Z,101088.63
2022-09-06T01:51:17.457Z,101086.84
2022-09-06T01:56:31.348Z,101072.75
2022-09-06T02:01:39.729Z,101078.63
2022-09-06T02:06:46.419Z,101050.53
2022-09-06T02:11:52.434Z,101060.19
2022-09-06T02:16:57.756Z,101071.75
2022-09-06T02:22:03.046Z,101077.22
2022-09-06T02:27:06.691Z,101073.09
2022-09-06T02:32:15.236Z,101081.53
2022-09-06T02:37:18.797Z,101075.16
2022-09-06T02:42:22.482Z,101067.84
2022-09-06T02:47:27.305Z,101063.06
2022-09-06T02:52:30.908Z,101063.66
2022-09-06T02:57:34.327Z,101069.50
2022-09-06T03:02:39.102Z,101060.06
2022-09-06T03:07:42.497Z,101059.94
2022-09-06T03:12:46.159Z,101071.03
2022-09-06T03:17:50.944Z,101058.28
2022-09-06T03:22:56.149Z,101057.91
2022-09-06T03:27:59.571Z,101050.69
2022-09-06T03:33:04.366Z,101058.94
2022-09-06T03:38:07.851Z,101059.78
2022-09-06T03:43:11.268Z,101051.41
2022-09-06T03:48:17.145Z,101041.63
2022-09-06T03:53:21.315Z,101038.59
2022-09-06T03:58:25.540Z,101042.66
2022-09-06T04:03:30.323Z,101051.72
2022-09-06T04:08:34.569Z,101054.41
2022-09-06T04:13:38.319Z,101063.50
2022-09-06T04:18:43.382Z,101060.50
2022-09-06T04:23:46.734Z,101045.69
2022-09-06T04:28:50.213Z,101058.81
2022-09-06T04:33:55.270Z,101047.19
2022-09-06T04:38:58.669Z,101046.69
2022-09-06T04:44:02.151Z,101041.94
2022-09-06T04:49:06.891Z,101043.59
2022-09-06T04:54:10.312Z,101043.91
2022-09-06T04:59:13.810Z,101034.97
2022-09-06T05:04:18.681Z,101032.44
2022-09-06T05:09:22.087Z,101044.38
2022-09-06T05:14:25.619Z,101041.91
2022-09-06T05:19:30.355Z,101037.47
2022-09-06T05:24:33.768Z,101039.66
2022-09-06T05:29:37.176Z,101035.13
2022-09-06T05:34:41.906Z,101035.50
2022-09-06T05:39:45.402Z,101038.47
2022-09-06T05:44:48.866Z,101034.28
2022-09-06T05:49:54.905Z,101022.69
2022-09-06T05:54:58.446Z,101029.56
2022-09-06T06:00:01.814Z,101043.09
2022-09-06T06:05:16.712Z,101055.44
2022-09-06T06:10:20.095Z,101065.31
2022-09-06T06:15:23.519Z,101113.06
2022-09-06T06:20:28.353Z,101126.81
2022-09-06T06:25:31.792Z,101118.50
2022-09-06T06:30:35.865Z,101144.69
2022-09-06T06:35:40.770Z,101151.06
2022-09-06T06:40:46.629Z,101134.63
2022-09-06T06:45:50.825Z,101113.91
2022-09-06T06:50:55.647Z,101108.34
2022-09-06T06:55:59.051Z,101107.94
2022-09-06T07:01:06.849Z,101101.94
2022-09-06T07:06:12.505Z,101107.28
2022-09-06T07:11:20.470Z,101113.25
2022-09-06T07:16:28.191Z,101125.22
2022-09-06T07:26:40.421Z,101126.72
2022-09-06T07:37:09.246Z,101106.38
2022-09-06T07:42:12.744Z,101108.38
2022-09-06T07:58:06.031Z,101105.53
2022-09-06T08:03:09.543Z,101110.50
2022-09-06T08:13:38.764Z,101114.25
2022-09-06T08:18:42.187Z,101116.31
2022-09-06T08:23:50.392Z,101093.78
2022-09-06T08:28:55.638Z,101091.59
2022-09-06T08:34:00.150Z,101085.72
2022-09-06T08:39:06.675Z,101084.22
2022-09-06T08:49:37.528Z,101095.78
2022-09-06T08:54:45.832Z,101082.31
2022-09-06T08:59:50.340Z,101077.41
2022-09-06T09:04:57.074Z,101073.41
2022-09-06T09:10:04.324Z,101079.63
2022-09-06T09:15:10.416Z,101076.13
2022-09-06T09:20:14.234Z,101067.19
2022-09-06T09:25:22.299Z,101051.81
2022-09-06T09:35:50.160Z,101041.81
2022-09-06T09:40:57.071Z,101038.16
2022-09-06T09:46:17.929Z,101033.59
2022-09-06T09:51:30.495Z,101025.03
2022-09-06T09:56:39.591Z,101014.31
2022-09-06T10:01:42.974Z,101010.63
2022-09-06T10:12:16.328Z,101010.16
2022-09-06T10:17:21.876Z,101010.47
2022-09-06T10:22:29.533Z,101016.78
2022-09-06T10:27:35.927Z,101000.16
2022-09-06T10:32:42.634Z,101000.06
2022-09-06T10:37:53.588Z,101009.81
2022-09-06T10:43:01.318Z,101008.53
2022-09-06T10:48:14.547Z,100997.41
2022-09-06T10:53:32.113Z,100979.66
2022-09-06T11:04:12.874Z,100972.25
2022-09-06T11:09:21.729Z,100975.00
2022-09-06T11:14:27.130Z,100975.06
2022-09-06T11:19:35.114Z,100973.84
2022-09-06T11:24:49.438Z,100973.28
2022-09-06T11:29:59.469Z,100953.25
2022-09-06T11:35:07.248Z,100955.34
2022-09-06T11:40:31.871Z,100941.63
2022-09-06T11:45:45.785Z,100942.81
2022-09-06T11:51:01.239Z,100940.56
2022-09-06T11:56:15.487Z,100924.59
2022-09-06T12:01:38.667Z,100928.72
2022-09-06T12:06:43.871Z,100922.63
2022-09-06T12:11:48.556Z,100921.16
2022-09-06T12:17:30.229Z,100916.81
2022-09-06T12:23:02.280Z,100906.59
2022-09-06T12:28:07.242Z,100922.97
2022-09-06T12:33:15.448Z,100920.56
2022-09-06T12:38:25.122Z,100913.97
2022-09-06T12:43:31.020Z,100908.38
2022-09-06T12:48:39.111Z,100892.97
2022-09-06T12:53:51.255Z,100889.88
2022-09-06T12:59:04.544Z,100892.81
2022-09-06T13:04:10.524Z,100883.00
2022-09-06T13:09:16.772Z,100877.25
2022-09-06T13:14:21.677Z,100872.59
2022-09-06T13:19:33.866Z,100861.09
2022-09-06T13:24:47.147Z,100860.53
2022-09-06T13:29:56.686Z,100854.59
2022-09-06T13:35:01.355Z,100848.56
2022-09-06T13:40:59.890Z,100843.03
2022-09-06T13:46:07.682Z,100835.41
2022-09-06T13:51:11.274Z,100835.97
2022-09-06T13:56:16.820Z,100832.72
2022-09-06T14:01:20.368Z,100826.06
2022-09-06T14:06:23.931Z,100819.50
2022-09-06T14:11:28.863Z,100813.56
2022-09-06T14:16:32.563Z,100816.81
2022-09-06T14:21:36.203Z,100809.06
2022-09-06T14:26:41.531Z,100804.78
2022-09-06T14:31:44.995Z,100805.19
2022-09-06T14:36:48.443Z,100798.38
2022-09-06T14:41:53.901Z,100802.69
2022-09-06T14:46:58.208Z,100792.81
2022-09-06T14:52:02.045Z,100787.78
2022-09-06T14:57:07.249Z,100788.91
2022-09-06T15:02:10.844Z,100780.47
2022-09-06T15:07:14.336Z,100779.31
2022-09-06T15:12:19.471Z,100768.69
2022-09-06T15:17:23.022Z,100777.63
2022-09-06T15:22:26.694Z,100772.25
2022-09-06T15:27:33.153Z,100764.22
2022-09-06T15:32:37.783Z,100751.91
2022-09-06T15:37:41.358Z,100757.47
2022-09-06T15:42:46.336Z,100751.25
2022-09-06T15:47:49.796Z,100748.16
2022-09-06T15:52:53.508Z,100737.63
2022-09-06T15:57:58.544Z,100735.59
2022-09-06T16:03:02.086Z,100732.47
2022-09-06T16:08:05.613Z,100724.28
2022-09-06T16:13:10.529Z,100721.63
2022-09-06T16:18:13.963Z,100716.91
2022-09-06T16:23:18.583Z,100716.31
2022-09-06T16:28:23.625Z,100707.06
2022-09-06T16:33:27.103Z,100702.63
2022-09-06T16:38:31.786Z,100690.38
2022-09-06T16:43:40.110Z,100690.94
2022-09-06T16:48:43.598Z,100686.53
2022-09-06T16:53:47.865Z,100692.19
2022-09-06T16:58:54.179Z,100694.81
2022-09-06T17:03:58.397Z,100692.41
2022-09-06T17:09:01.914Z,100692.47
2022-09-06T17:14:06.897Z,100697.28
2022-09-06T17:19:10.556Z,100705.56
2022-09-06T17:24:14.093Z,100702.25
2022-09-06T17:29:19.338Z,100692.97
2022-09-06T17:34:23.066Z,100702.94
2022-09-06T17:39:26.529Z,100713.06
2022-09-06T17:44:32.429Z,100718.22
2022-09-06T17:49:35.908Z,100724.28
2022-09-06T17:54:39.408Z,100718.75
2022-09-06T17:59:44.247Z,100729.84
2022-09-06T18:04:47.813Z,100732.16
2022-09-06T18:09:51.291Z,100744.09
2022-09-06T18:14:56.947Z,100737.69
2022-09-06T18:20:00.406Z,100741.44
2022-09-06T18:25:03.915Z,100746.06
2022-09-06T18:30:14.619Z,100742.69
2022-09-06T18:35:18.353Z,100740.97
2022-09-06T18:40:21.874Z,100752.41
2022-09-06T18:45:26.848Z,100746.78
2022-09-06T18:50:30.918Z,100745.13
2022-09-06T18:55:38.123Z,100748.34
2022-09-06T19:00:43.228Z,100745.41
2022-09-06T19:05:46.960Z,100752.69
2022-09-06T19:11:00.880Z,100751.97
2022-09-06T19:16:07.120Z,100746.44
2022-09-06T19:21:12.066Z,100745.94
2022-09-06T19:26:16.964Z,100740.84
2022-09-06T19:31:22.280Z,100741.88
2022-09-06T19:36:27.993Z,100756.59
2022-09-06T19:41:32.420Z,100734.97
2022-09-06T19:46:39.461Z,100742.44
2022-09-06T19:51:46.357Z,100736.25
2022-09-06T19:56:50.214Z,100727.00
2022-09-06T20:01:55.120Z,100731.34
2022-09-06T20:06:58.748Z,100733.63
2022-09-06T20:12:02.812Z,100732.72
2022-09-06T20:17:32.098Z,100738.94
2022-09-06T20:22:31.414Z,100722.91
2022-09-06T20:27:35.142Z,100716.91
2022-09-06T20:32:40.156Z,100715.31
2022-09-06T20:37:43.632Z,100703.06
2022-09-06T20:42:47.144Z,100705.50
2022-09-06T20:47:51.994Z,100698.69
2022-09-06T20:52:55.446Z,100687.13
2022-09-06T20:57:58.885Z,100693.25
2022-09-06T21:03:03.702Z,100689.91
2022-09-06T21:08:07.252Z,100687.50
2022-09-06T21:13:10.737Z,100684.53
2022-09-06T21:18:15.614Z,100674.94
2022-09-06T21:23:19.088Z,100681.00
2022-09-06T21:28:22.959Z,100683.88
2022-09-06T21:33:29.481Z,100681.47
2022-09-06T21:38:33.807Z,100691.34
2022-09-06T21:43:37.592Z,100692.94
2022-09-06T21:48:43.876Z,100705.13
2022-09-06T21:53:51.596Z,100692.84
2022-09-06T21:58:56.284Z,100687.81
2022-09-06T22:04:02.251Z,100677.88
2022-09-06T22:09:10.496Z,100662.66
2022-09-06T22:14:15.120Z,100660.81
2022-09-06T22:19:20.130Z,100663.78
2022-09-06T22:24:23.752Z,100663.88
2022-09-06T22:29:27.677Z,100671.78
2022-09-06T22:34:32.484Z,100676.81
2022-09-06T22:39:36.120Z,100660.72
2022-09-06T22:44:40.510Z,100666.72
2022-09-06T22:49:45.358Z,100655.91
2022-09-06T22:54:48.847Z,100657.97
2022-09-06T22:59:52.340Z,100649.50
2022-09-06T23:04:57.489Z,100654.97
2022-09-06T23:10:01.055Z,100652.34
2022-09-06T23:15:05.047Z,100640.97
2022-09-06T23:20:10.391Z,100636.34
2022-09-06T23:25:13.835Z,100642.00
2022-09-06T23:30:17.395Z,100636.31
2022-09-06T23:35:22.233Z,100624.88
2022-09-06T23:40:26.134Z,100628.66
2022-09-06T23:45:29.557Z,100619.41
2022-09-06T23:50:34.368Z,100609.56
2022-09-06T23:55:37.811Z,100594.97
